^^
Station Historical Data
Daily Summary for October 19, 2017 Units:  Metric    English   Both
« Previous Day
Next Day »
Daily Weekly Monthly Yearly Custom
  High: Low: Average:
Temperature: 21.8 °C 9.8 °C 16.2 °C
Dew Point: 6.2 °C 3 °C 4.8 °C
Humidity: 70% 30% 49%
Wind Speed: 27.4km/h 6.4km/h 16.4km/h
Wind Gust: 29km/h - -
Wind- - SSW
Pressure: 1016.8 hPa 1013.1 hPa -
Precipitation: 0 mm    
Historical Graphs
 
 
Tabular Data for October 19, 2017
Time Temperature Dew Point Pressure Wind Wind Speed Wind Gust Humidity Rainfall Rate (Hourly) solar Conditions
06:55 9.8 °C 4.2 °C 1015.1 hPa South 13 km/h 19.3 km/h 68% 0 mm 109.0 W/m2
07:02 9.9 °C 4.3 °C 1015.1 hPa South 16.3 km/h 16.3 km/h 68% 0 mm 95.0 W/m2
07:14 10.1 °C 4.5 °C 1015.1 hPa SSW 7.9 km/h 12.9 km/h 68% 0 mm 102.0 W/m2
07:23 10.2 °C 4.8 °C 1015.5 hPa South 14.3 km/h 17.7 km/h 69% 0 mm 125.0 W/m2
07:35 10.2 °C 4.8 °C 1015.8 hPa South 14.3 km/h 24.1 km/h 69% 0 mm 137.0 W/m2
07:49 10.2 °C 5 °C 1016.1 hPa SSE 22.7 km/h 25.7 km/h 70% 0 mm 197.0 W/m2
07:59 10.4 °C 5 °C 1016.1 hPa SSE 20.9 km/h 24.1 km/h 69% 0 mm 265.0 W/m2
08:30 11.1 °C 4.5 °C 1016.5 hPa South 19.5 km/h 27.4 km/h 64% 0 mm 438.0 W/m2
09:01 11.8 °C 4.5 °C 1016.8 hPa South 11.1 km/h 24.1 km/h 61% 0 mm 555.0 W/m2
09:14 12.1 °C 4.3 °C 1016.8 hPa SSE 20.9 km/h 24.1 km/h 59% 0 mm 592.0 W/m2
09:25 12.4 °C 4.4 °C 1016.8 hPa South 24.1 km/h 27.4 km/h 58% 0 mm 610.0 W/m2
09:40 12.7 °C 4.1 °C 1016.8 hPa South 17.7 km/h 20.9 km/h 56% 0 mm 468.0 W/m2
10:25 13.8 °C 4.7 °C 1016.8 hPa SSW 20.9 km/h 25.7 km/h 54% 0 mm 784.0 W/m2
10:41 14.4 °C 4.7 °C 1016.8 hPa South 11.1 km/h 24.1 km/h 52% 0 mm 812.0 W/m2
10:55 14.9 °C 4.6 °C 1016.8 hPa South 19.5 km/h 29 km/h 50% 0 mm 283.0 W/m2
11:25 15.8 °C 4.8 °C 1016.5 hPa South 9.7 km/h 24.1 km/h 48% 0 mm 891.0 W/m2
11:35 16.2 °C 4.9 °C 1016.5 hPa SSW 6.4 km/h 12.9 km/h 47% 0 mm 886.0 W/m2
11:46 16.7 °C 4.7 °C 1016.1 hPa SSW 11.1 km/h 16.1 km/h 45% 0 mm 916.0 W/m2
12:47 18.8 °C 5.3 °C 1015.1 hPa SSW 11.1 km/h 16.1 km/h 41% 0 mm 939.0 W/m2
13:01 19.3 °C 5.4 °C 1015.1 hPa SSW 17.7 km/h 19.3 km/h 40% 0 mm 935.0 W/m2
13:13 19.6 °C 5.3 °C 1014.8 hPa South 17.7 km/h 25.7 km/h 39% 0 mm 1018.0 W/m2
13:22 19.7 °C 5.4 °C 1014.8 hPa SSW 13 km/h 16.1 km/h 39% 0 mm 522.0 W/m2
13:32 20.1 °C 5 °C 1014.4 hPa SW 7.9 km/h 17.7 km/h 37% 0 mm 954.0 W/m2
13:38 19.9 °C 4.4 °C 1014.4 hPa South 7.9 km/h 16.1 km/h 36% 0 mm 863.0 W/m2
13:44 19.7 °C 4.6 °C 1014.4 hPa South 13 km/h 19.3 km/h 37% 0 mm 348.0 W/m2
13:57 20.3 °C 4.7 °C 1014.4 hPa South 11.1 km/h 17.7 km/h 36% 0 mm 889.0 W/m2
14:28 20.5 °C 4.9 °C 1014.1 hPa South 6.4 km/h 11.3 km/h 36% 0 mm 828.0 W/m2
14:57 21.4 °C 4.5 °C 1013.4 hPa SSE 16.3 km/h 16.3 km/h 33% 0 mm 761.0 W/m2
15:08 21.1 °C 3.8 °C 1013.4 hPa SSW 19.5 km/h 20.9 km/h 32% 0 mm 737.0 W/m2
15:36 21.7 °C 4.3 °C 1013.4 hPa SW 16.3 km/h 19.3 km/h 32% 0 mm 652.0 W/m2
15:47 21.7 °C 3.8 °C 1013.4 hPa SW 17.7 km/h 22.5 km/h 31% 0 mm 626.0 W/m2
16:19 21.6 °C 3.7 °C 1013.1 hPa SW 14.3 km/h 17.7 km/h 31% 0 mm 531.0 W/m2
16:35 21.4 °C 3.6 °C 1013.4 hPa SSW 9.7 km/h 16.1 km/h 31% 0 mm 473.0 W/m2
16:48 21.8 °C 3.9 °C 1013.1 hPa SW 13 km/h 17.7 km/h 31% 0 mm 431.0 W/m2
17:34 21.5 °C 3.2 °C 1013.4 hPa SSE 16.3 km/h 20.9 km/h 30% 0 mm 272.0 W/m2
17:58 21.2 °C 3.4 °C 1013.4 hPa SSW 17.7 km/h 19.3 km/h 31% 0 mm 169.0 W/m2
18:29 21 °C 3.2 °C 1013.4 hPa SSW 13 km/h 22.5 km/h 31% 0 mm 56.0 W/m2
18:44 20.7 °C 3.4 °C 1013.4 hPa SSW 16.3 km/h 20.9 km/h 32% 0 mm 16.0 W/m2
18:58 20.3 °C 3.1 °C 1013.8 hPa South 13 km/h 17.7 km/h 32% 0 mm 7.0 W/m2
19:10 20.1 °C 3.3 °C 1013.8 hPa South 16.3 km/h 19.3 km/h 33% 0 mm 0.0 W/m2
19:53 19.3 °C 3 °C 1014.4 hPa South 20.9 km/h 20.9 km/h 34% 0 mm 0.0 W/m2
21:00 17.7 °C 4.6 °C 1015.5 hPa SSW 22.7 km/h 29 km/h 42% 0 mm 0.0 W/m2
21:14 17 °C 4.7 °C 1016.1 hPa South 22.7 km/h 29 km/h 44% 0 mm 0.0 W/m2
21:30 16.3 °C 5.3 °C 1016.5 hPa SSW 16.3 km/h 29 km/h 48% 0 mm 0.0 W/m2
21:45 15.8 °C 5.7 °C 1016.5 hPa SSW 19.5 km/h 25.7 km/h 51% 0 mm 0.0 W/m2
22:00 15.4 °C 5.9 °C 1016.5 hPa SSW 19.5 km/h 22.5 km/h 53% 0 mm 0.0 W/m2
22:14 14.9 °C 5.7 °C 1016.8 hPa SSW 17.7 km/h 22.5 km/h 54% 0 mm 0.0 W/m2
22:36 14.5 °C 5.8 °C 1016.5 hPa SSW 24.1 km/h 27.4 km/h 56% 0 mm 0.0 W/m2
22:45 14.3 °C 5.9 °C 1016.5 hPa SSW 25.9 km/h 27.4 km/h 57% 0 mm 0.0 W/m2
22:50 14.2 °C 5.8 °C 1016.5 hPa SSW 27.4 km/h 27.4 km/h 57% 0 mm 0.0 W/m2
22:55 14.1 °C 6 °C 1016.5 hPa SSW 20.9 km/h 25.7 km/h 58% 0 mm 0.0 W/m2
23:00 14.1 °C 6 °C 1016.5 hPa SSW 19.5 km/h 22.5 km/h 58% 0 mm 0.0 W/m2
23:05 14 °C 5.9 °C 1016.5 hPa SSW 17.7 km/h 20.9 km/h 58% 0 mm 0.0 W/m2
23:10 13.9 °C 6 °C 1016.5 hPa SSW 19.5 km/h 27.4 km/h 59% 0 mm 0.0 W/m2
23:16 13.9 °C 6 °C 1016.5 hPa SSW 17.7 km/h 22.5 km/h 59% 0 mm 0.0 W/m2
23:25 13.8 °C 6.2 °C 1016.5 hPa SSW 20.9 km/h 22.5 km/h 60% 0 mm 0.0 W/m2
23:31 13.7 °C 6.1 °C 1016.5 hPa SW 17.7 km/h 25.7 km/h 60% 0 mm 0.0 W/m2
23:41 13.5 °C 6.1 °C 1016.5 hPa SSW 19.5 km/h 25.7 km/h 61% 0 mm 0.0 W/m2
23:46 13.4 °C 6 °C 1016.5 hPa SSW 13 km/h 24.1 km/h 61% 0 mm 0.0 W/m2
23:51 13.4 °C 6 °C 1016.5 hPa SSW 16.3 km/h 24.1 km/h 61% 0 mm 0.0 W/m2
Canyon Roadhouse, Fishriver Canyon, Namibia
Compliments of Weather Underground - 2 mb